Time;durP1;ratioP1;P1;durP2;ratioP2;P2;SDS_P1;SDS_P2;PMS_P1;PMS_P2;Temp;Humidity;BMP_temperature;BMP_pressure;BME280_temperature;BME280_humidity;BME280_pressure;Samples;Min_cycle;Max_cycle;Signal;HPM_P1;HPM_P2
2024/04/20 00:01:12;;;;;;;;;;;;;;;11.41;44.97;93757.06;4527526;26;19955;-60
2024/04/20 00:03:15;;;;;;;;;;;;;;;11.36;44.75;93756.81;4538037;26;19980;-61
2024/04/20 00:05:17;;;;;;;;;;;;;;;11.36;44.80;93762.06;4529190;26;19928;-61
2024/04/20 00:07:19;;;;;;;;;;;;;;;11.37;45.06;93758.44;4530172;26;19928;-59
2024/04/20 00:09:20;;;;;;;;;;;;;;;11.31;45.14;93750.50;4526807;26;20422;-61
2024/04/20 00:11:25;;;;;;;;;;;;;;;11.21;45.18;93749.00;4529942;26;19997;-61
2024/04/20 00:13:27;;;;;;;;;;;;;;;11.21;45.19;93750.81;4541548;26;19928;-60
2024/04/20 00:15:28;;;;;;;;;;;;;;;11.25;45.42;93746.84;4529139;26;19928;-60
2024/04/20 00:17:30;;;;;;;;;;;;;;;11.21;44.93;93749.00;4535144;26;19928;-62
2024/04/20 00:19:32;;;;;;;;;;;;;;;11.20;44.65;93746.56;4537401;26;20033;-60
2024/04/20 00:21:34;;;;;;;;;;;;;;;11.20;45.03;93747.38;4527525;26;19932;-60
2024/04/20 00:23:36;;;;;;;;;;;;;;;11.11;45.60;93740.63;4526675;26;19952;-60
2024/04/20 00:25:38;;;;;;;;;;;;;;;11.08;45.55;93730.53;4534815;26;19927;-60
2024/04/20 00:27:40;;;;;;;;;;;;;;;11.11;45.40;93731.97;4532062;26;20104;-58
2024/04/20 00:29:42;;;;;;;;;;;;;;;11.11;45.59;93738.00;4534805;26;19928;-61
2024/04/20 00:31:43;;;;;;;;;;;;;;;11.05;45.86;93742.16;4529487;26;19989;-59
2024/04/20 00:33:45;;;;;;;;;;;;;;;11.09;45.67;93726.09;4532861;26;19975;-61
2024/04/20 00:35:47;;;;;;;;;;;;;;;11.12;45.68;93731.78;4527361;26;19948;-59
2024/04/20 00:37:49;;;;;;;;;;;;;;;11.13;45.63;93729.97;4525088;26;19940;-61
2024/04/20 00:39:51;;;;;;;;;;;;;;;11.13;45.75;93732.59;4532441;26;20158;-61
2024/04/20 00:41:53;;;;;;;;;;;;;;;11.14;45.71;93732.41;4534203;26;19928;-59
2024/04/20 00:43:55;;;;;;;;;;;;;;;11.11;46.44;93732.75;4533001;26;19935;-60
2024/04/20 00:45:56;;;;;;;;;;;;;;;10.99;46.89;93740.31;4526366;26;20522;-61
2024/04/20 00:47:59;;;;;;;;;;;;;;;10.99;47.42;93732.47;4520659;26;20356;-60
2024/04/20 00:50:01;;;;;;;;;;;;;;;11.00;47.16;93741.13;4519459;26;20309;-59
2024/04/20 00:52:03;;;;;;;;;;;;;;;11.03;47.23;93731.09;4521135;26;19928;-60
2024/04/20 00:54:05;;;;;;;;;;;;;;;11.09;46.99;93736.56;4523557;25;20020;-61
2024/04/20 00:56:08;;;;;;;;;;;;;;;11.12;47.31;93737.03;4527693;26;19927;-60
2024/04/20 00:58:10;;;;;;;;;;;;;;;11.10;47.43;93736.41;4520284;26;20395;-58
2024/04/20 01:00:12;;;;;;;;;;;;;;;11.11;47.58;93737.22;4540993;25;19939;-59
2024/04/20 01:02:13;;;;;;;;;;;;;;;11.10;48.13;93735.56;4532307;26;19996;-61
2024/04/20 01:04:15;;;;;;;;;;;;;;;11.12;48.36;93739.66;4537072;26;19928;-58
2024/04/20 01:06:17;;;;;;;;;;;;;;;11.12;47.81;93744.91;4533032;26;19936;-60
2024/04/20 01:08:19;;;;;;;;;;;;;;;11.18;48.13;93738.06;4533030;26;20023;-59
2024/04/20 01:10:20;;;;;;;;;;;;;;;11.15;48.43;93738.47;4535473;26;19934;-58
2024/04/20 01:12:23;;;;;;;;;;;;;;;11.13;48.06;93737.84;4533173;26;19986;-60
2024/04/20 01:14:24;;;;;;;;;;;;;;;11.05;48.97;93741.38;4525697;26;19936;-60
2024/04/20 01:16:26;;;;;;;;;;;;;;;10.97;49.76;93738.84;4530877;26;20008;-61
2024/04/20 01:18:28;;;;;;;;;;;;;;;10.94;49.40;93745.28;4545356;26;20423;-60
2024/04/20 01:20:30;;;;;;;;;;;;;;;10.93;50.07;93740.25;4530579;26;20344;-59
2024/04/20 01:22:31;;;;;;;;;;;;;;;10.93;50.33;93743.66;4519116;26;20387;-60
2024/04/20 01:24:33;;;;;;;;;;;;;;;10.95;50.46;93738.22;4534680;26;19936;-60
2024/04/20 01:26:35;;;;;;;;;;;;;;;10.95;50.54;93740.84;4525058;26;19952;-60
2024/04/20 01:28:37;;;;;;;;;;;;;;;10.93;50.96;93742.88;4534107;26;20384;-60
2024/04/20 01:30:38;;;;;;;;;;;;;;;10.91;51.38;93737.81;4562646;26;20603;-60
2024/04/20 01:32:40;;;;;;;;;;;;;;;10.90;51.39;93746.66;4533407;26;19938;-60
2024/04/20 01:34:42;;;;;;;;;;;;;;;10.92;51.27;93734.16;4542900;26;19928;-62
2024/04/20 01:36:45;;;;;;;;;;;;;;;10.84;52.02;93740.34;4525551;26;20023;-59
2024/04/20 01:38:47;;;;;;;;;;;;;;;10.86;51.52;93737.53;4545217;26;19934;-61
2024/04/20 01:40:49;;;;;;;;;;;;;;;10.87;51.49;93741.78;4527867;26;19941;-60
2024/04/20 01:42:51;;;;;;;;;;;;;;;10.88;51.78;93739.97;4534158;26;19995;-59
2024/04/20 01:44:53;;;;;;;;;;;;;;;10.90;51.90;93737.97;4528199;26;20047;-60
2024/04/20 01:46:54;;;;;;;;;;;;;;;10.97;52.03;93737.06;4533360;25;20007;-58
2024/04/20 01:48:56;;;;;;;;;;;;;;;10.97;51.66;93737.06;4525394;26;19963;-58
2024/04/20 01:50:58;;;;;;;;;;;;;;;10.96;52.07;93745.09;4523720;26;19928;-58
2024/04/20 01:53:00;;;;;;;;;;;;;;;10.97;52.08;93736.22;4520494;26;20415;-61
2024/04/20 01:55:02;;;;;;;;;;;;;;;11.02;51.66;93739.13;4530820;26;20339;-61
2024/04/20 01:57:04;;;;;;;;;;;;;;;11.03;51.76;93728.47;4535682;26;19928;-59
2024/04/20 01:59:05;;;;;;;;;;;;;;;11.04;52.16;93732.69;4531572;26;20321;-59
2024/04/20 02:01:07;;;;;;;;;;;;;;;11.03;51.82;93725.84;4536017;26;20409;-63
2024/04/20 02:03:11;;;;;;;;;;;;;;;11.05;51.94;93733.50;4532961;26;20031;-59
2024/04/20 02:05:13;;;;;;;;;;;;;;;11.10;51.69;93728.53;4535311;26;20281;-62
2024/04/20 02:07:15;;;;;;;;;;;;;;;11.11;51.91;93734.59;4532911;26;19927;-60
2024/04/20 02:09:17;;;;;;;;;;;;;;;11.12;51.65;93738.81;4539709;26;20059;-59
2024/04/20 02:11:18;;;;;;;;;;;;;;;11.16;51.89;93738.25;4533662;26;20390;-63
2024/04/20 02:13:20;;;;;;;;;;;;;;;11.17;51.89;93728.59;4530427;26;20339;-58
2024/04/20 02:15:24;;;;;;;;;;;;;;;11.19;51.95;93731.84;4533800;26;19960;-59
2024/04/20 02:17:25;;;;;;;;;;;;;;;11.16;51.96;93729.59;4534268;26;20442;-61
2024/04/20 02:19:27;;;;;;;;;;;;;;;11.03;51.75;93740.75;4536119;26;19932;-60
2024/04/20 02:21:29;;;;;;;;;;;;;;;10.71;52.74;93740.19;4505822;26;19997;-60
2024/04/20 02:23:31;;;;;;;;;;;;;;;10.40;53.87;93740.41;4508338;26;19942;-60
2024/04/20 02:25:33;;;;;;;;;;;;;;;10.23;54.61;93743.16;4514069;26;20000;-60
2024/04/20 02:27:34;;;;;;;;;;;;;;;10.19;54.93;93744.50;4528880;26;19943;-60
2024/04/20 02:29:36;;;;;;;;;;;;;;;10.01;54.41;93747.47;4528010;26;19953;-59
2024/04/20 02:31:38;;;;;;;;;;;;;;;9.97;54.01;93745.41;4528920;26;19932;-61
2024/04/20 02:33:40;;;;;;;;;;;;;;;9.89;53.27;93748.91;4524146;26;19932;-61
2024/04/20 02:35:41;;;;;;;;;;;;;;;9.91;53.01;93751.34;4544223;26;19939;-59
2024/04/20 02:37:43;;;;;;;;;;;;;;;9.92;52.32;93752.97;4534572;26;19996;-59
2024/04/20 02:39:48;;;;;;;;;;;;;;;9.84;52.48;93749.44;4534071;26;19928;-60
2024/04/20 02:41:50;;;;;;;;;;;;;;;9.64;51.92;93753.56;4532311;26;20442;-59
2024/04/20 02:43:52;;;;;;;;;;;;;;;9.35;52.52;93759.47;4534832;26;20007;-61
2024/04/20 02:45:54;;;;;;;;;;;;;;;9.40;52.58;93760.59;4534208;26;19932;-59
2024/04/20 02:47:56;;;;;;;;;;;;;;;9.40;52.44;93762.41;4532593;26;19948;-59
2024/04/20 02:49:58;;;;;;;;;;;;;;;9.34;52.53;93761.28;4521226;26;19935;-61
2024/04/20 02:52:00;;;;;;;;;;;;;;;9.19;53.20;93765.66;4525839;26;19935;-60
2024/04/20 02:54:02;;;;;;;;;;;;;;;9.23;53.21;93772.16;4521081;26;19927;-59
2024/04/20 02:56:04;;;;;;;;;;;;;;;9.23;52.71;93769.53;4532581;26;19928;-60
2024/04/20 02:58:06;;;;;;;;;;;;;;;9.16;53.31;93771.19;4526256;26;19928;-60
2024/04/20 03:00:08;;;;;;;;;;;;;;;9.32;52.93;93771.09;4531492;26;19933;-61
2024/04/20 03:02:10;;;;;;;;;;;;;;;9.46;52.61;93772.13;4531250;26;19955;-61
2024/04/20 03:04:11;;;;;;;;;;;;;;;9.67;52.19;93770.69;4529547;26;20651;-61
2024/04/20 03:06:15;;;;;;;;;;;;;;;9.74;51.68;93772.41;4522572;26;19929;-60
2024/04/20 03:08:16;;;;;;;;;;;;;;;9.75;51.92;93773.25;4533083;26;19939;-60
2024/04/20 03:10:18;;;;;;;;;;;;;;;9.85;51.76;93765.94;4533059;26;19997;-61
2024/04/20 03:12:21;;;;;;;;;;;;;;;9.99;51.62;93769.59;4518129;26;20016;-60
2024/04/20 03:14:23;;;;;;;;;;;;;;;10.06;51.61;93773.09;4526532;26;20346;-61
2024/04/20 03:16:25;;;;;;;;;;;;;;;10.10;51.86;93777.00;4531307;26;20104;-61
2024/04/20 03:18:27;;;;;;;;;;;;;;;10.20;52.47;93769.69;4532347;26;19948;-61
2024/04/20 03:20:28;;;;;;;;;;;;;;;10.29;52.89;93783.53;4545743;26;20002;-61
2024/04/20 03:22:30;;;;;;;;;;;;;;;10.21;53.77;93781.78;4538512;26;19928;-61
2024/04/20 03:24:32;;;;;;;;;;;;;;;10.25;54.21;93790.09;4539474;26;19931;-60
2024/04/20 03:26:34;;;;;;;;;;;;;;;10.29;54.17;93786.16;4524566;26;19936;-60
2024/04/20 03:28:36;;;;;;;;;;;;;;;10.37;54.17;93785.28;4528739;26;20040;-58
2024/04/20 03:30:37;;;;;;;;;;;;;;;10.43;54.53;93795.00;4530075;26;19948;-60
2024/04/20 03:32:39;;;;;;;;;;;;;;;10.44;55.16;93799.25;4524925;26;20368;-60
2024/04/20 03:34:41;;;;;;;;;;;;;;;10.50;55.32;93797.75;4530243;26;19972;-61
2024/04/20 03:36:43;;;;;;;;;;;;;;;10.54;55.23;93794.56;4519699;26;20015;-59
2024/04/20 03:38:47;;;;;;;;;;;;;;;10.55;55.28;93796.19;4543856;26;19932;-62
2024/04/20 03:40:49;;;;;;;;;;;;;;;10.54;54.95;93793.75;4510613;26;19928;-60
2024/04/20 03:42:50;;;;;;;;;;;;;;;10.54;54.83;93791.13;4527562;26;19997;-59
2024/04/20 03:44:52;;;;;;;;;;;;;;;10.56;54.49;93800.44;4539950;26;19960;-60
2024/04/20 03:46:55;;;;;;;;;;;;;;;10.50;54.78;93803.78;4532342;26;19935;-59
2024/04/20 03:48:57;;;;;;;;;;;;;;;10.49;54.49;93806.56;4527159;26;19956;-61
2024/04/20 03:51:02;;;;;;;;;;;;;;;10.50;54.35;93803.78;4524256;26;20386;-60
2024/04/20 03:53:04;;;;;;;;;;;;;;;10.51;54.36;93800.16;4529322;26;19975;-60
2024/04/20 03:55:05;;;;;;;;;;;;;;;10.45;55.08;93806.13;4534729;26;19927;-60
2024/04/20 03:57:07;;;;;;;;;;;;;;;10.41;54.51;93813.53;4534154;26;20228;-61
2024/04/20 03:59:09;;;;;;;;;;;;;;;10.41;54.67;93810.91;4527234;26;20032;-60
2024/04/20 04:01:11;;;;;;;;;;;;;;;10.43;54.54;93805.47;4527404;26;20340;-62
2024/04/20 04:03:22;;;;;;;;;;;;;;;10.43;54.49;93815.94;4518990;26;20131;-62
2024/04/20 04:05:24;;;;;;;;;;;;;;;10.46;54.19;93815.59;4532732;26;19996;-62
2024/04/20 04:07:27;;;;;;;;;;;;;;;10.47;54.09;93811.19;4535925;26;19944;-61
2024/04/20 04:09:29;;;;;;;;;;;;;;;10.51;54.83;93815.88;4531307;26;20020;-60
2024/04/20 04:11:31;;;;;;;;;;;;;;;10.45;54.59;93811.34;4527467;26;20090;-61
2024/04/20 04:13:33;;;;;;;;;;;;;;;10.54;54.92;93814.69;4532666;26;20031;-59
2024/04/20 04:15:36;;;;;;;;;;;;;;;10.52;54.76;93809.66;4525783;26;19946;-61
2024/04/20 04:17:38;;;;;;;;;;;;;;;10.45;54.83;93819.22;4531786;26;19935;-59
2024/04/20 04:19:40;;;;;;;;;;;;;;;10.44;54.96;93820.22;4525428;26;19928;-62
2024/04/20 04:21:41;;;;;;;;;;;;;;;10.42;54.51;93816.97;4546794;26;20556;-59
2024/04/20 04:23:43;;;;;;;;;;;;;;;10.40;54.21;93822.38;4519251;26;19957;-61
2024/04/20 04:25:45;;;;;;;;;;;;;;;10.35;54.24;93821.28;4531003;26;19940;-59
2024/04/20 04:27:47;;;;;;;;;;;;;;;10.34;54.13;93830.13;4535407;26;20023;-62
2024/04/20 04:29:49;;;;;;;;;;;;;;;10.35;53.48;93822.09;4533668;26;19939;-63
2024/04/20 04:31:51;;;;;;;;;;;;;;;10.38;54.09;93828.78;4521043;26;20462;-62
2024/04/20 04:33:52;;;;;;;;;;;;;;;10.38;54.07;93826.16;4535294;26;20287;-61
2024/04/20 04:35:57;;;;;;;;;;;;;;;10.40;54.48;93819.75;4525714;26;19999;-65
2024/04/20 04:38:00;;;;;;;;;;;;;;;10.32;54.00;93824.25;4535315;26;20264;-61
2024/04/20 04:40:02;;;;;;;;;;;;;;;10.30;54.42;93821.81;4537841;26;19939;-62
2024/04/20 04:42:04;;;;;;;;;;;;;;;10.28;54.51;93810.66;4539990;26;19928;-61
2024/04/20 04:44:06;;;;;;;;;;;;;;;10.21;54.31;93818.44;4540234;26;20012;-61
2024/04/20 04:46:08;;;;;;;;;;;;;;;10.26;54.06;93807.44;4528844;26;19955;-62
2024/04/20 04:48:09;;;;;;;;;;;;;;;10.25;54.80;93814.47;4525031;26;19977;-62
2024/04/20 04:50:11;;;;;;;;;;;;;;;10.17;54.52;93805.88;4540322;26;20338;-62
2024/04/20 04:52:13;;;;;;;;;;;;;;;10.16;54.35;93810.31;4538098;26;19975;-61
2024/04/20 04:54:17;;;;;;;;;;;;;;;10.21;54.12;93810.56;4517769;26;19952;-61
2024/04/20 04:56:18;;;;;;;;;;;;;;;10.22;54.11;93812.22;4535990;26;19928;-61
2024/04/20 04:58:20;;;;;;;;;;;;;;;10.14;54.04;93816.72;4530536;26;19935;-60
2024/04/20 05:00:22;;;;;;;;;;;;;;;10.17;54.00;93816.34;4532170;26;20243;-60
2024/04/20 05:02:25;;;;;;;;;;;;;;;10.10;54.10;93831.13;4536198;26;19958;-61
2024/04/20 05:04:27;;;;;;;;;;;;;;;9.99;54.45;93827.94;4538190;26;19935;-61
2024/04/20 05:06:29;;;;;;;;;;;;;;;10.01;54.49;93831.22;4515846;26;20397;-61
2024/04/20 05:08:34;;;;;;;;;;;;;;;10.12;54.27;93824.72;4534007;26;20216;-60
2024/04/20 05:10:37;;;;;;;;;;;;;;;10.21;53.50;93826.28;4549731;26;19992;-61
2024/04/20 05:12:38;;;;;;;;;;;;;;;10.25;53.29;93817.06;4535901;26;20090;-61
2024/04/20 05:14:41;;;;;;;;;;;;;;;10.27;53.53;93819.53;4526361;26;19943;-60
2024/04/20 05:16:43;;;;;;;;;;;;;;;10.34;53.17;93812.59;4521973;26;20355;-62
2024/04/20 05:18:44;;;;;;;;;;;;;;;10.46;52.88;93807.75;4512039;26;19996;-62
2024/04/20 05:20:47;;;;;;;;;;;;;;;10.59;52.41;93814.97;4529093;26;19928;-60
2024/04/20 05:22:50;;;;;;;;;;;;;;;10.69;51.82;93817.31;4531743;26;20105;-61
2024/04/20 05:24:52;;;;;;;;;;;;;;;10.75;52.15;93813.97;4533762;26;20009;-62
2024/04/20 05:26:53;;;;;;;;;;;;;;;10.78;51.88;93811.00;4533363;26;19958;-61
2024/04/20 05:28:55;;;;;;;;;;;;;;;10.91;51.04;93807.75;4535273;26;20683;-61
2024/04/20 05:30:57;;;;;;;;;;;;;;;11.07;51.15;93802.28;4531534;26;20026;-62
2024/04/20 05:32:59;;;;;;;;;;;;;;;11.23;50.30;93799.44;4530132;26;19952;-62
2024/04/20 05:35:01;;;;;;;;;;;;;;;11.34;49.91;93797.34;4560453;26;20026;-61
2024/04/20 05:37:03;;;;;;;;;;;;;;;11.48;49.03;93799.91;4529735;26;19928;-62
2024/04/20 05:39:05;;;;;;;;;;;;;;;11.57;48.52;93794.53;4535252;26;20029;-63
2024/04/20 05:41:06;;;;;;;;;;;;;;;11.58;48.34;93802.22;4560442;25;20062;-60
2024/04/20 05:43:08;;;;;;;;;;;;;;;11.63;47.78;93801.66;4550970;26;19947;-62
2024/04/20 05:45:13;;;;;;;;;;;;;;;11.69;47.54;93798.28;4533970;26;19928;-61
2024/04/20 05:47:15;;;;;;;;;;;;;;;11.72;47.04;93790.03;4531341;26;19993;-61
2024/04/20 05:49:16;;;;;;;;;;;;;;;11.90;46.81;93791.44;4534150;26;20552;-62
2024/04/20 05:51:18;;;;;;;;;;;;;;;12.01;46.31;93785.69;4522742;26;19928;-62
2024/04/20 05:53:20;;;;;;;;;;;;;;;12.04;45.31;93785.28;4512934;26;20049;-60
2024/04/20 05:55:22;;;;;;;;;;;;;;;12.04;45.37;93790.53;4517858;26;19933;-61
2024/04/20 05:57:23;;;;;;;;;;;;;;;11.67;46.06;93784.53;4549191;26;19955;-60
2024/04/20 05:59:25;;;;;;;;;;;;;;;11.30;46.80;93783.78;4555994;26;19972;-60
2024/04/20 06:01:27;;;;;;;;;;;;;;;11.40;47.14;93788.72;4551705;26;20406;-62
2024/04/20 06:03:29;;;;;;;;;;;;;;;11.46;47.69;93788.81;4538437;25;19972;-62
2024/04/20 06:05:31;;;;;;;;;;;;;;;11.62;47.45;93779.06;4534927;26;19935;-60
2024/04/20 06:07:33;;;;;;;;;;;;;;;11.44;46.73;93780.31;4533983;26;19928;-62
2024/04/20 06:09:35;;;;;;;;;;;;;;;11.41;46.91;93791.16;4540872;26;20296;-60
2024/04/20 06:11:37;;;;;;;;;;;;;;;11.58;46.86;93786.47;4532783;26;19927;-60
2024/04/20 06:13:39;;;;;;;;;;;;;;;11.75;46.74;93784.44;4533691;26;19935;-63
2024/04/20 06:15:41;;;;;;;;;;;;;;;11.83;45.75;93781.69;4534637;26;19963;-62
2024/04/20 06:17:42;;;;;;;;;;;;;;;11.75;46.41;93781.00;4526023;26;20301;-60
2024/04/20 06:19:44;;;;;;;;;;;;;;;11.78;46.51;93786.66;4533675;26;20058;-61
2024/04/20 06:21:46;;;;;;;;;;;;;;;11.91;46.81;93785.19;4533665;26;20746;-60
2024/04/20 06:23:49;;;;;;;;;;;;;;;12.11;46.12;93788.78;4520767;26;20286;-60
2024/04/20 06:25:51;;;;;;;;;;;;;;;12.24;46.04;93793.34;4527760;26;19993;-60
2024/04/20 06:27:53;;;;;;;;;;;;;;;12.35;46.18;93798.03;4535658;26;20640;-62
2024/04/20 06:29:56;;;;;;;;;;;;;;;12.21;45.51;93796.31;4528655;26;19997;-61
2024/04/20 06:31:57;;;;;;;;;;;;;;;12.21;45.74;93797.13;4525433;26;19979;-65
2024/04/20 06:33:59;;;;;;;;;;;;;;;12.22;44.98;93790.09;4528486;26;19936;-62
2024/04/20 06:36:01;;;;;;;;;;;;;;;12.28;44.74;93795.38;4531710;26;19938;-62
2024/04/20 06:38:03;;;;;;;;;;;;;;;12.42;45.41;93791.00;4533347;26;19995;-62
2024/04/20 06:40:05;;;;;;;;;;;;;;;12.56;44.98;93785.84;4527366;26;19961;-61
2024/04/20 06:42:07;;;;;;;;;;;;;;;12.63;45.15;93798.03;4533475;26;20525;-61
2024/04/20 06:44:09;;;;;;;;;;;;;;;12.73;45.27;93800.28;4533890;26;19932;-61
2024/04/20 06:46:11;;;;;;;;;;;;;;;12.73;44.88;93796.84;4557084;26;19935;-62
2024/04/20 06:48:13;;;;;;;;;;;;;;;12.68;43.59;93802.69;4530027;26;19928;-62
2024/04/20 06:50:18;;;;;;;;;;;;;;;12.63;43.70;93799.84;4523697;26;20381;-61
2024/04/20 06:52:21;;;;;;;;;;;;;;;12.65;44.26;93793.38;4532972;26;19928;-59
2024/04/20 06:54:23;;;;;;;;;;;;;;;12.69;44.54;93802.50;4532303;26;20005;-61
2024/04/20 06:56:26;;;;;;;;;;;;;;;12.57;44.01;93801.41;4525048;26;19973;-61
2024/04/20 06:58:27;;;;;;;;;;;;;;;12.34;44.73;93796.41;4513620;26;20263;-61
2024/04/20 07:00:29;;;;;;;;;;;;;;;12.25;45.26;93802.81;4531516;26;20701;-60
2024/04/20 07:02:31;;;;;;;;;;;;;;;12.39;45.41;93801.09;4518385;26;19942;-61
2024/04/20 07:04:34;;;;;;;;;;;;;;;12.43;44.98;93797.06;4532880;26;20276;-60
2024/04/20 07:06:36;;;;;;;;;;;;;;;12.32;44.42;93797.59;4532645;26;20546;-63
2024/04/20 07:08:37;;;;;;;;;;;;;;;12.37;44.88;93805.72;4531262;26;20063;-61
2024/04/20 07:10:39;;;;;;;;;;;;;;;12.49;45.01;93809.44;4529894;26;19934;-63
2024/04/20 07:12:41;;;;;;;;;;;;;;;12.63;44.34;93810.34;4529778;26;19964;-62
2024/04/20 07:14:44;;;;;;;;;;;;;;;12.60;44.54;93808.91;4527578;26;19946;-62
2024/04/20 07:16:46;;;;;;;;;;;;;;;12.66;45.08;93804.69;4530548;26;19940;-63
2024/04/20 07:18:48;;;;;;;;;;;;;;;12.73;44.96;93816.03;4529702;26;19962;-64
2024/04/20 07:20:50;;;;;;;;;;;;;;;12.68;44.49;93811.38;4532409;26;19968;-62
2024/04/20 07:22:52;;;;;;;;;;;;;;;12.64;45.10;93814.59;4507151;26;20259;-62
2024/04/20 07:24:54;;;;;;;;;;;;;;;12.60;45.15;93811.53;4509560;26;19933;-62
2024/04/20 07:26:57;;;;;;;;;;;;;;;12.62;45.14;93820.03;4531242;26;20023;-62
2024/04/20 07:29:00;;;;;;;;;;;;;;;12.74;45.08;93816.88;4544629;26;19928;-63
2024/04/20 07:31:02;;;;;;;;;;;;;;;12.87;44.27;93817.75;4526676;26;20001;-61
2024/04/20 07:33:04;;;;;;;;;;;;;;;12.97;44.42;93812.16;4531594;26;20263;-61
2024/04/20 07:35:06;;;;;;;;;;;;;;;12.98;43.44;93808.50;4531863;26;19935;-62
2024/04/20 07:37:08;;;;;;;;;;;;;;;12.79;43.69;93810.03;4527380;26;19993;-62
2024/04/20 07:39:10;;;;;;;;;;;;;;;12.47;43.85;93812.25;4533809;26;20044;-62
2024/04/20 07:41:11;;;;;;;;;;;;;;;12.26;44.81;93805.25;4512254;26;19935;-64
2024/04/20 07:43:15;;;;;;;;;;;;;;;12.35;44.67;93807.75;4513203;26;20588;-61
2024/04/20 07:45:17;;;;;;;;;;;;;;;12.57;45.06;93800.59;4533576;26;19936;-61
2024/04/20 07:47:18;;;;;;;;;;;;;;;12.76;44.30;93802.53;4531760;26;20005;-62
2024/04/20 07:49:20;;;;;;;;;;;;;;;12.88;44.62;93798.38;4529279;26;20043;-61
2024/04/20 07:51:22;;;;;;;;;;;;;;;12.91;44.26;93791.91;4512660;26;20306;-61
2024/04/20 07:53:24;;;;;;;;;;;;;;;12.82;44.35;93795.69;4532857;26;19928;-63
2024/04/20 07:55:26;;;;;;;;;;;;;;;12.95;43.15;93798.38;4521553;26;19948;-60
2024/04/20 07:57:27;;;;;;;;;;;;;;;12.75;43.62;93793.00;4523887;26;20324;-64
2024/04/20 07:59:30;;;;;;;;;;;;;;;12.97;44.29;93790.28;4527043;26;19929;-60
2024/04/20 08:01:32;;;;;;;;;;;;;;;13.10;43.34;93803.50;4531671;26;20015;-60
2024/04/20 08:03:34;;;;;;;;;;;;;;;13.37;43.78;93801.78;4521171;26;19932;-63
2024/04/20 08:05:38;;;;;;;;;;;;;;;13.62;43.06;93803.91;4523148;26;19941;-60
2024/04/20 08:07:40;;;;;;;;;;;;;;;13.75;43.48;93795.22;4524123;26;19928;-60
2024/04/20 08:09:42;;;;;;;;;;;;;;;13.92;43.24;93796.44;4526264;26;20568;-59
2024/04/20 08:11:44;;;;;;;;;;;;;;;14.00;42.00;93796.22;4499539;26;19955;-61
2024/04/20 08:13:45;;;;;;;;;;;;;;;14.13;42.27;93798.06;4517639;26;19940;-63
2024/04/20 08:15:48;;;;;;;;;;;;;;;14.08;41.62;93800.50;4526418;26;20133;-60
2024/04/20 08:17:50;;;;;;;;;;;;;;;12.89;43.04;93799.16;4528980;26;19939;-59
2024/04/20 08:19:52;;;;;;;;;;;;;;;12.75;43.16;93805.34;4530010;26;20595;-60
2024/04/20 08:21:53;;;;;;;;;;;;;;;12.83;42.90;93797.31;4519312;26;20023;-63
2024/04/20 08:23:56;;;;;;;;;;;;;;;13.06;42.59;93792.56;4528152;26;20035;-63
2024/04/20 08:25:58;;;;;;;;;;;;;;;12.95;42.81;93792.28;4530641;26;20250;-64
2024/04/20 08:28:01;;;;;;;;;;;;;;;12.86;43.38;93787.22;4532431;26;19932;-62
2024/04/20 08:30:03;;;;;;;;;;;;;;;12.66;43.45;93789.72;4523491;26;20304;-62
2024/04/20 08:32:06;;;;;;;;;;;;;;;12.37;43.23;93796.03;4531564;26;19928;-60
2024/04/20 08:34:08;;;;;;;;;;;;;;;12.44;43.29;93796.09;4521313;26;19947;-62
2024/04/20 08:36:10;;;;;;;;;;;;;;;12.48;44.03;93794.69;4532599;26;20240;-59
2024/04/20 08:38:11;;;;;;;;;;;;;;;12.23;44.38;93799.56;4514374;26;19947;-61
2024/04/20 08:40:14;;;;;;;;;;;;;;;12.17;43.96;93795.88;4513357;26;20063;-65
2024/04/20 08:42:26;;;;;;;;;;;;;;;12.27;44.08;93796.38;4534737;26;19948;-65
2024/04/20 08:44:28;;;;;;;;;;;;;;;12.44;43.52;93793.47;4529082;26;19958;-61
2024/04/20 08:46:30;;;;;;;;;;;;;;;12.68;42.95;93792.97;4528624;26;20548;-61
2024/04/20 08:48:32;;;;;;;;;;;;;;;12.32;42.18;93793.16;4535657;26;20059;-60
2024/04/20 08:50:34;;;;;;;;;;;;;;;12.50;42.77;93790.06;4535836;26;19979;-61
2024/04/20 08:52:36;;;;;;;;;;;;;;;12.68;42.29;93787.72;4554473;25;19932;-62
2024/04/20 08:54:38;;;;;;;;;;;;;;;13.01;41.95;93784.44;4502587;26;19935;-61
2024/04/20 08:56:40;;;;;;;;;;;;;;;12.94;41.48;93774.91;4533723;26;19952;-61
2024/04/20 08:58:42;;;;;;;;;;;;;;;13.01;41.88;93778.38;4532702;26;19940;-62
2024/04/20 09:00:45;;;;;;;;;;;;;;;12.58;41.88;93771.50;4523828;26;20324;-60
2024/04/20 09:02:47;;;;;;;;;;;;;;;12.51;41.75;93783.78;4525370;26;19964;-62
2024/04/20 09:04:49;;;;;;;;;;;;;;;12.58;41.61;93773.31;4531362;26;19928;-63
2024/04/20 09:06:51;;;;;;;;;;;;;;;12.66;42.30;93778.41;4528754;26;19977;-60
2024/04/20 09:08:53;;;;;;;;;;;;;;;13.03;41.18;93774.53;4521611;26;19938;-61
2024/04/20 09:10:55;;;;;;;;;;;;;;;13.08;40.08;93769.50;4531730;26;19960;-62
2024/04/20 09:12:57;;;;;;;;;;;;;;;13.03;40.29;93773.72;4510126;26;20227;-61
2024/04/20 09:14:59;;;;;;;;;;;;;;;12.81;40.94;93778.28;4534450;26;20064;-61
2024/04/20 09:17:01;;;;;;;;;;;;;;;13.18;41.01;93784.09;4532778;26;19939;-62
2024/04/20 09:19:06;;;;;;;;;;;;;;;13.71;40.49;93774.53;4512685;26;19931;-63
2024/04/20 09:21:08;;;;;;;;;;;;;;;14.21;39.85;93774.16;4542365;26;19976;-64
2024/04/20 09:23:10;;;;;;;;;;;;;;;13.81;39.13;93770.69;4525343;26;20279;-63
2024/04/20 09:25:11;;;;;;;;;;;;;;;14.01;39.58;93771.53;4543368;26;20302;-61
2024/04/20 09:27:13;;;;;;;;;;;;;;;14.43;39.41;93768.66;4527555;26;20402;-63
2024/04/20 09:29:16;;;;;;;;;;;;;;;14.65;38.11;93767.44;4523775;26;19947;-64
2024/04/20 09:31:17;;;;;;;;;;;;;;;14.82;38.96;93762.53;4525004;26;19939;-63
2024/04/20 09:33:20;;;;;;;;;;;;;;;14.53;38.21;93769.03;4511353;26;19940;-63
2024/04/20 09:35:22;;;;;;;;;;;;;;;14.39;38.28;93760.38;4529263;26;19939;-61
2024/04/20 09:37:24;;;;;;;;;;;;;;;13.91;38.72;93766.66;4533016;26;19982;-64
2024/04/20 09:39:26;;;;;;;;;;;;;;;13.15;40.04;93774.00;4524162;26;19929;-64
2024/04/20 09:41:29;;;;;;;;;;;;;;;13.02;40.44;93786.06;4529200;26;20001;-63
2024/04/20 09:43:30;;;;;;;;;;;;;;;12.94;40.94;93780.19;4527827;26;20354;-61
2024/04/20 09:45:35;;;;;;;;;;;;;;;13.07;40.92;93775.75;4533120;26;20012;-62
2024/04/20 09:47:37;;;;;;;;;;;;;;;12.99;40.78;93772.50;4522711;26;20471;-62
2024/04/20 09:49:39;;;;;;;;;;;;;;;12.82;40.54;93774.66;4533829;26;19928;-61
2024/04/20 09:51:51;;;;;;;;;;;;;;;12.99;40.47;93768.06;4528959;26;19936;-60
2024/04/20 09:53:56;;;;;;;;;;;;;;;13.33;40.20;93774.25;4513824;26;20220;-61
2024/04/20 09:55:59;;;;;;;;;;;;;;;13.54;39.80;93762.78;4528785;26;19967;-60
2024/04/20 09:58:02;;;;;;;;;;;;;;;13.66;40.19;93769.09;4521497;26;19935;-62
2024/04/20 10:00:08;;;;;;;;;;;;;;;14.08;39.44;93764.44;4521799;26;19928;-58
2024/04/20 10:02:10;;;;;;;;;;;;;;;13.67;39.41;93760.16;4546741;26;20460;-62
2024/04/20 10:04:11;;;;;;;;;;;;;;;13.67;39.17;93759.34;4536987;26;19999;-61
2024/04/20 10:06:13;;;;;;;;;;;;;;;13.31;39.76;93755.22;4530562;26;19935;-60
2024/04/20 10:08:15;;;;;;;;;;;;;;;13.26;40.62;93763.69;4533684;26;20471;-62
2024/04/20 10:10:22;;;;;;;;;;;;;;;13.60;39.88;93755.91;4530132;26;20454;-62
2024/04/20 10:12:24;;;;;;;;;;;;;;;13.62;38.86;93757.34;4524384;26;20029;-60
2024/04/20 10:14:26;;;;;;;;;;;;;;;13.49;39.50;93750.22;4529476;26;20077;-61
2024/04/20 10:16:27;;;;;;;;;;;;;;;13.58;39.20;93756.09;4529986;26;19986;-63
2024/04/20 10:18:29;;;;;;;;;;;;;;;13.63;38.71;93745.78;4529624;26;19959;-61
2024/04/20 10:20:35;;;;;;;;;;;;;;;14.09;38.68;93741.56;4512392;26;20046;-61
2024/04/20 10:22:40;;;;;;;;;;;;;;;14.55;38.44;93738.06;4528139;26;19928;-62
2024/04/20 10:24:52;;;;;;;;;;;;;;;14.85;38.20;93741.00;4517815;26;19992;-60
2024/04/20 10:26:56;;;;;;;;;;;;;;;15.10;37.61;93735.84;4528996;26;19985;-61
2024/04/20 10:29:07;;;;;;;;;;;;;;;15.23;37.15;93734.97;4530738;26;20011;-62
2024/04/20 10:31:09;;;;;;;;;;;;;;;15.22;36.51;93738.59;4527977;26;19934;-62
2024/04/20 10:33:11;;;;;;;;;;;;;;;14.95;36.64;93732.66;4524668;26;20387;-60
2024/04/20 10:35:22;;;;;;;;;;;;;;;15.11;36.72;93745.34;4528743;26;20284;-60
2024/04/20 10:37:24;;;;;;;;;;;;;;;15.37;37.23;93727.75;4531153;26;20302;-60